createdAt,value
2022-11-15T00:00:06.111Z,99264.81
2022-11-15T00:00:18.400Z,99264.75
2022-11-15T00:00:30.367Z,99260.44
2022-11-15T00:00:42.222Z,99262.94
2022-11-15T00:00:54.427Z,99257.88
2022-11-15T00:01:15.038Z,99265.72
2022-11-15T00:01:26.916Z,99262.31
2022-11-15T00:01:39.577Z,99256.34
2022-11-15T00:01:51.588Z,99260.75
2022-11-15T00:02:05.614Z,99252.00
2022-11-15T00:02:17.619Z,99254.53
2022-11-15T00:02:29.667Z,99254.59
2022-11-15T00:02:41.577Z,99251.16
2022-11-15T00:02:54.080Z,99255.41
2022-11-15T00:03:05.963Z,99257.13
2022-11-15T00:03:19.773Z,99254.81
2022-11-15T00:03:32.130Z,99250.66
2022-11-15T00:03:44.340Z,99259.38
2022-11-15T00:03:56.295Z,99250.00
2022-11-15T00:04:08.229Z,99254.44
2022-11-15T00:04:20.101Z,99264.22
2022-11-15T00:04:32.135Z,99265.06
2022-11-15T00:04:44.148Z,99260.63
2022-11-15T00:04:56.022Z,99254.47
2022-11-15T00:05:08.003Z,99252.69
2022-11-15T00:05:20.031Z,99263.94
2022-11-15T00:05:36.462Z,99264.72
2022-11-15T00:05:48.635Z,99252.59
2022-11-15T00:06:05.141Z,99255.06
2022-11-15T00:06:17.060Z,99259.38
2022-11-15T00:06:29.022Z,99254.06
2022-11-15T00:06:41.066Z,99252.25
2022-11-15T00:06:52.996Z,99252.69
2022-11-15T00:07:04.993Z,99262.22
2022-11-15T00:07:40.336Z,99255.44
2022-11-15T00:07:55.481Z,99256.63
2022-11-15T00:08:08.057Z,99259.09
2022-11-15T00:08:20.244Z,99261.63
2022-11-15T00:08:33.554Z,99258.28
2022-11-15T00:08:45.470Z,99261.81
2022-11-15T00:09:01.082Z,99265.19
2022-11-15T00:09:12.973Z,99261.63
2022-11-15T00:09:24.878Z,99271.00
2022-11-15T00:09:36.747Z,99264.84
2022-11-15T00:09:48.629Z,99264.84
2022-11-15T00:10:01.083Z,99256.25
2022-11-15T00:10:13.208Z,99263.97
2022-11-15T00:10:25.102Z,99262.34
2022-11-15T00:10:37.824Z,99264.16
2022-11-15T00:11:01.501Z,99261.91
2022-11-15T00:11:13.704Z,99269.25
2022-11-15T00:11:26.317Z,99267.63
2022-11-15T00:11:38.191Z,99266.22
2022-11-15T00:11:50.066Z,99266.22
2022-11-15T00:12:01.943Z,99267.09
2022-11-15T00:12:13.884Z,99260.44
2022-11-15T00:12:25.742Z,99263.03
2022-11-15T00:12:38.213Z,99262.22
2022-11-15T00:12:50.106Z,99262.41
2022-11-15T00:13:06.722Z,99266.88
2022-11-15T00:13:18.601Z,99262.13
2022-11-15T00:13:31.539Z,99271.66
2022-11-15T00:13:43.752Z,99262.03
2022-11-15T00:13:56.393Z,99263.66
2022-11-15T00:14:08.293Z,99270.16
2022-11-15T00:14:20.211Z,99266.34
2022-11-15T00:14:32.416Z,99266.91
2022-11-15T00:14:44.294Z,99273.59
2022-11-15T00:14:56.185Z,99263.97
2022-11-15T00:15:08.692Z,99268.09
2022-11-15T00:15:20.562Z,99271.53
2022-11-15T00:15:32.446Z,99270.56
2022-11-15T00:15:44.318Z,99273.13
2022-11-15T00:16:00.422Z,99274.81
2022-11-15T00:16:12.464Z,99270.50
2022-11-15T00:16:25.389Z,99271.16
2022-11-15T00:16:37.363Z,99265.09
2022-11-15T00:16:49.291Z,99268.38
2022-11-15T00:17:01.255Z,99273.47
2022-11-15T00:17:13.183Z,99271.78
2022-11-15T00:17:25.064Z,99268.38
2022-11-15T00:17:36.944Z,99270.19
2022-11-15T00:17:51.867Z,99270.19
2022-11-15T00:18:05.232Z,99271.09
2022-11-15T00:18:17.635Z,99270.19
2022-11-15T00:18:30.713Z,99267.59
2022-11-15T00:18:47.743Z,99279.63
2022-11-15T00:19:01.353Z,99269.25
2022-11-15T00:19:13.313Z,99275.25
2022-11-15T00:19:25.268Z,99277.88
2022-11-15T00:19:37.213Z,99274.31
2022-11-15T00:19:50.285Z,99272.66
2022-11-15T00:20:02.177Z,99272.72
2022-11-15T00:20:14.160Z,99272.78
2022-11-15T00:20:26.072Z,99272.72
2022-11-15T00:20:38.289Z,99269.25
2022-11-15T00:20:50.174Z,99277.16
2022-11-15T00:21:11.300Z,99275.47
2022-11-15T00:21:23.175Z,99271.09
2022-11-15T00:21:35.350Z,99277.13
2022-11-15T00:21:47.391Z,99277.13
2022-11-15T00:21:59.308Z,99277.16
2022-11-15T00:22:11.297Z,99273.75
2022-11-15T00:22:23.538Z,99272.28
2022-11-15T00:22:35.497Z,99274.25
2022-11-15T00:22:47.767Z,99276.13
2022-11-15T00:22:59.659Z,99278.13
2022-11-15T00:23:11.916Z,99278.81
2022-11-15T00:23:23.800Z,99276.97
2022-11-15T00:23:36.105Z,99278.66
2022-11-15T00:23:48.005Z,99279.53
2022-11-15T00:24:00.045Z,99280.47
2022-11-15T00:24:12.076Z,99272.94
2022-11-15T00:24:24.135Z,99273.75
2022-11-15T00:24:36.029Z,99272.75
2022-11-15T00:24:47.940Z,99275.41
2022-11-15T00:24:59.851Z,99265.69
2022-11-15T00:25:11.743Z,99271.41
2022-11-15T00:25:23.742Z,99268.47
2022-11-15T00:25:35.835Z,99277.38
2022-11-15T00:25:47.774Z,99272.19
2022-11-15T00:26:00.096Z,99276.47
2022-11-15T00:26:14.948Z,99269.34
2022-11-15T00:26:26.855Z,99270.75
2022-11-15T00:26:38.743Z,99270.50
2022-11-15T00:26:50.649Z,99275.44
2022-11-15T00:27:04.596Z,99262.31
2022-11-15T00:27:19.552Z,99272.41
2022-11-15T00:27:31.469Z,99276.50
2022-11-15T00:27:43.374Z,99276.41
2022-11-15T00:27:59.559Z,99276.41
2022-11-15T00:28:11.497Z,99274.53
2022-11-15T00:28:23.694Z,99267.59
2022-11-15T00:28:35.572Z,99272.72
2022-11-15T00:28:48.016Z,99276.09
2022-11-15T00:28:59.908Z,99276.84
2022-11-15T00:29:11.886Z,99276.06
2022-11-15T00:29:23.853Z,99276.06
2022-11-15T00:29:35.821Z,99274.16
2022-11-15T00:29:47.715Z,99270.75
2022-11-15T00:29:59.609Z,99266.38
2022-11-15T00:30:12.058Z,99271.53
2022-11-15T00:30:24.223Z,99271.41
2022-11-15T00:30:36.141Z,99270.53
2022-11-15T00:30:48.029Z,99278.25
2022-11-15T00:31:08.486Z,99273.00
2022-11-15T00:31:20.461Z,99277.34
2022-11-15T00:31:32.355Z,99270.50
2022-11-15T00:31:44.275Z,99270.69
2022-11-15T00:31:56.169Z,99276.09
2022-11-15T00:32:08.055Z,99269.34
2022-11-15T00:32:19.948Z,99268.44
2022-11-15T00:32:33.161Z,99274.63
2022-11-15T00:32:45.069Z,99266.38
2022-11-15T00:32:56.964Z,99271.59
2022-11-15T00:33:09.609Z,99267.53
2022-11-15T00:33:21.562Z,99268.31
2022-11-15T00:33:34.897Z,99268.28
2022-11-15T00:33:47.006Z,99263.94
2022-11-15T00:33:58.926Z,99264.63
2022-11-15T00:34:11.655Z,99260.50
2022-11-15T00:34:23.530Z,99262.38
2022-11-15T00:34:35.418Z,99265.19
2022-11-15T00:34:47.266Z,99261.56
2022-11-15T00:34:59.163Z,99260.06
2022-11-15T00:35:11.065Z,99256.97
2022-11-15T00:35:23.346Z,99256.22
2022-11-15T00:35:35.451Z,99264.09
2022-11-15T00:35:47.414Z,99263.28
2022-11-15T00:36:10.281Z,99261.72
2022-11-15T00:36:22.166Z,99262.81
2022-11-15T00:36:35.446Z,99265.31
2022-11-15T00:36:47.347Z,99257.47
2022-11-15T00:36:59.216Z,99260.88
2022-11-15T00:37:11.090Z,99260.09
2022-11-15T00:37:23.000Z,99267.97
2022-11-15T00:37:35.348Z,99270.63
2022-11-15T00:37:48.587Z,99266.22
2022-11-15T00:38:01.184Z,99260.88
2022-11-15T00:38:13.086Z,99263.28
2022-11-15T00:38:24.983Z,99261.34
2022-11-15T00:38:38.993Z,99262.03
2022-11-15T00:38:50.879Z,99261.06
2022-11-15T00:39:06.643Z,99261.88
2022-11-15T00:39:18.518Z,99261.75
2022-11-15T00:39:30.415Z,99261.00
2022-11-15T00:39:42.370Z,99249.97
2022-11-15T00:39:54.251Z,99251.09
2022-11-15T00:40:06.824Z,99253.72
2022-11-15T00:40:18.731Z,99260.50
2022-11-15T00:40:31.101Z,99252.56
2022-11-15T00:40:42.990Z,99256.75
2022-11-15T00:40:54.858Z,99258.66
2022-11-15T00:41:09.799Z,99253.06
2022-11-15T00:41:22.281Z,99261.03
2022-11-15T00:41:34.217Z,99248.81
2022-11-15T00:41:46.102Z,99253.97
2022-11-15T00:41:57.984Z,99250.50
2022-11-15T00:42:09.890Z,99258.09
2022-11-15T00:42:21.793Z,99260.59
2022-11-15T00:42:33.689Z,99257.19
2022-11-15T00:42:46.539Z,99251.94
2022-11-15T00:42:58.913Z,99251.09
2022-11-15T00:43:10.805Z,99258.06
2022-11-15T00:43:22.666Z,99248.63
2022-11-15T00:43:35.261Z,99250.66
2022-11-15T00:43:47.125Z,99254.25
2022-11-15T00:43:58.997Z,99255.03
2022-11-15T00:44:10.901Z,99258.63
2022-11-15T00:44:22.791Z,99255.16
2022-11-15T00:44:34.932Z,99261.28
2022-11-15T00:44:46.839Z,99259.66
2022-11-15T00:44:58.713Z,99257.84
2022-11-15T00:45:10.828Z,99262.19
2022-11-15T00:45:23.092Z,99254.44
2022-11-15T00:45:35.214Z,99254.31
2022-11-15T00:45:47.095Z,99257.66
2022-11-15T00:45:59.357Z,99252.28
2022-11-15T00:46:11.310Z,99254.78
2022-11-15T00:46:23.252Z,99252.13
2022-11-15T00:46:35.126Z,99257.19
2022-11-15T00:46:47.094Z,99255.34
2022-11-15T00:46:58.956Z,99254.34
2022-11-15T00:47:10.922Z,99252.50
2022-11-15T00:47:22.933Z,99257.56
2022-11-15T00:47:34.841Z,99252.31
2022-11-15T00:47:47.457Z,99246.16
2022-11-15T00:47:59.364Z,99254.66
2022-11-15T00:48:11.276Z,99253.66
2022-11-15T00:48:23.203Z,99255.31
2022-11-15T00:48:35.138Z,99250.03
2022-11-15T00:48:47.109Z,99253.38
2022-11-15T00:48:59.009Z,99249.00
2022-11-15T00:49:10.866Z,99258.53
2022-11-15T00:49:22.753Z,99249.00
2022-11-15T00:49:34.620Z,99251.56
2022-11-15T00:49:46.526Z,99247.22
2022-11-15T00:49:59.118Z,99242.91
2022-11-15T00:50:14.963Z,99250.00
2022-11-15T00:50:27.322Z,99249.19
2022-11-15T00:50:39.250Z,99249.25
2022-11-15T00:50:51.370Z,99248.41
2022-11-15T00:51:03.304Z,99252.63
2022-11-15T00:51:15.182Z,99247.03
2022-11-15T00:51:27.140Z,99248.44
2022-11-15T00:51:38.999Z,99253.13
2022-11-15T00:51:50.902Z,99249.59
2022-11-15T00:52:03.073Z,99246.09
2022-11-15T00:52:14.965Z,99245.94
2022-11-15T00:52:26.919Z,99251.03
2022-11-15T00:52:38.946Z,99252.38
2022-11-15T00:52:50.830Z,99250.75
2022-11-15T00:53:02.810Z,99249.06
2022-11-15T00:53:14.794Z,99254.50
2022-11-15T00:53:26.994Z,99249.41
2022-11-15T00:53:38.921Z,99252.03
2022-11-15T00:53:50.952Z,99253.84
2022-11-15T00:54:02.854Z,99247.81
2022-11-15T00:54:14.793Z,99247.88
2022-11-15T00:54:26.688Z,99255.69
2022-11-15T00:54:38.574Z,99252.34
2022-11-15T00:54:50.565Z,99250.59
2022-11-15T00:55:02.676Z,99248.13
2022-11-15T00:55:18.873Z,99252.53
2022-11-15T00:55:30.749Z,99251.84
2022-11-15T00:55:42.706Z,99247.56
2022-11-15T00:55:54.613Z,99247.28
2022-11-15T00:56:06.997Z,99242.72
2022-11-15T00:56:18.924Z,99248.50
2022-11-15T00:56:30.823Z,99251.78
2022-11-15T00:56:42.760Z,99254.22
2022-11-15T00:56:54.659Z,99243.72
2022-11-15T00:57:06.610Z,99242.72
2022-11-15T00:57:18.485Z,99246.84
2022-11-15T00:57:30.398Z,99243.25
2022-11-15T00:57:42.356Z,99238.88
2022-11-15T00:57:54.313Z,99248.38
2022-11-15T00:58:06.220Z,99246.59
2022-11-15T00:58:18.315Z,99244.78
2022-11-15T00:58:30.258Z,99246.50
2022-11-15T00:58:42.181Z,99247.56
2022-11-15T00:58:54.225Z,99242.38
2022-11-15T00:59:06.080Z,99247.47
2022-11-15T00:59:17.969Z,99251.81
2022-11-15T00:59:29.860Z,99244.03
2022-11-15T00:59:41.730Z,99244.97
2022-11-15T00:59:53.653Z,99246.94
2022-11-15T01:00:06.363Z,99247.81
2022-11-15T01:00:18.467Z,99243.56
2022-11-15T01:00:30.488Z,99243.56
2022-11-15T01:00:42.597Z,99244.38
2022-11-15T01:00:54.541Z,99241.00
2022-11-15T01:01:12.122Z,99243.59
2022-11-15T01:01:24.095Z,99240.97
2022-11-15T01:01:36.038Z,99239.19
2022-11-15T01:01:47.963Z,99245.97
2022-11-15T01:01:59.906Z,99240.69
2022-11-15T01:02:11.804Z,99242.44
2022-11-15T01:02:23.700Z,99238.97
2022-11-15T01:02:35.798Z,99238.81
2022-11-15T01:02:47.687Z,99236.16
2022-11-15T01:03:01.333Z,99239.88
2022-11-15T01:03:13.287Z,99238.00
2022-11-15T01:03:25.198Z,99237.06
2022-11-15T01:03:38.522Z,99243.00
2022-11-15T01:03:50.441Z,99235.22
2022-11-15T01:04:02.287Z,99237.75
2022-11-15T01:04:15.176Z,99235.28
2022-11-15T01:04:27.061Z,99236.31
2022-11-15T01:04:38.951Z,99243.56
2022-11-15T01:04:50.851Z,99239.38
2022-11-15T01:05:03.287Z,99231.78
2022-11-15T01:05:15.585Z,99244.06
2022-11-15T01:05:27.709Z,99241.03
2022-11-15T01:05:39.760Z,99242.19
2022-11-15T01:05:51.706Z,99239.81
2022-11-15T01:06:04.122Z,99240.03
2022-11-15T01:06:16.028Z,99236.75
2022-11-15T01:06:27.933Z,99242.13
2022-11-15T01:06:39.822Z,99237.97
2022-11-15T01:06:52.056Z,99240.63
2022-11-15T01:07:04.037Z,99239.72
2022-11-15T01:07:16.038Z,99239.72
2022-11-15T01:07:28.031Z,99238.69
2022-11-15T01:07:40.123Z,99241.03
2022-11-15T01:07:53.604Z,99238.47
2022-11-15T01:08:05.710Z,99240.31
2022-11-15T01:08:17.668Z,99241.91
2022-11-15T01:08:29.555Z,99234.72
2022-11-15T01:08:41.654Z,99233.66
2022-11-15T01:08:53.703Z,99231.75
2022-11-15T01:09:05.595Z,99238.50
2022-11-15T01:09:17.506Z,99229.75
2022-11-15T01:09:29.395Z,99233.94
2022-11-15T01:09:41.323Z,99235.75
2022-11-15T01:09:53.312Z,99229.81
2022-11-15T01:10:06.113Z,99237.41
2022-11-15T01:10:18.057Z,99226.03
2022-11-15T01:10:30.065Z,99235.41
2022-11-15T01:10:42.293Z,99231.03
2022-11-15T01:10:54.207Z,99228.38
2022-11-15T01:11:09.495Z,99230.16
2022-11-15T01:11:21.468Z,99226.59
2022-11-15T01:11:34.564Z,99230.88
2022-11-15T01:11:46.537Z,99227.41
2022-11-15T01:11:58.554Z,99226.41
2022-11-15T01:12:10.424Z,99223.78
2022-11-15T01:12:22.306Z,99226.31
2022-11-15T01:12:34.276Z,99228.06
2022-11-15T01:12:46.265Z,99221.91
2022-11-15T01:12:58.273Z,99223.53
2022-11-15T01:13:10.167Z,99221.72
2022-11-15T01:13:22.053Z,99227.66
2022-11-15T01:13:35.305Z,99220.69
2022-11-15T01:13:47.222Z,99226.59
2022-11-15T01:13:59.111Z,99225.69
2022-11-15T01:14:11.176Z,99224.81
2022-11-15T01:14:25.554Z,99226.44
2022-11-15T01:14:37.736Z,99228.09
2022-11-15T01:14:50.572Z,99232.41
2022-11-15T01:15:02.922Z,99225.50
2022-11-15T01:15:14.835Z,99227.28
2022-11-15T01:15:26.801Z,99227.66
2022-11-15T01:15:41.943Z,99217.75
2022-11-15T01:15:53.827Z,99223.03
2022-11-15T01:16:10.342Z,99222.91
2022-11-15T01:16:22.399Z,99224.63
2022-11-15T01:16:34.587Z,99226.13
2022-11-15T01:16:46.458Z,99222.09
2022-11-15T01:16:58.345Z,99227.78
2022-11-15T01:17:10.258Z,99228.94
2022-11-15T01:17:22.220Z,99221.25
2022-11-15T01:17:34.108Z,99227.19
2022-11-15T01:17:46.671Z,99221.84
2022-11-15T01:17:58.593Z,99217.31
2022-11-15T01:18:10.771Z,99223.28
2022-11-15T01:18:22.703Z,99228.00
2022-11-15T01:18:34.587Z,99226.63
2022-11-15T01:18:46.984Z,99230.19
2022-11-15T01:18:58.877Z,99236.63
2022-11-15T01:19:10.804Z,99230.97
2022-11-15T01:19:22.763Z,99219.69
2022-11-15T01:19:34.691Z,99229.69
2022-11-15T01:19:46.606Z,99226.91
2022-11-15T01:19:58.610Z,99223.31
2022-11-15T01:20:10.813Z,99222.25
2022-11-15T01:20:22.715Z,99223.91
2022-11-15T01:20:34.733Z,99226.31
2022-11-15T01:20:46.704Z,99221.84
2022-11-15T01:20:58.711Z,99226.84
2022-11-15T01:21:16.530Z,99221.59
2022-11-15T01:21:28.500Z,99223.38
2022-11-15T01:21:40.405Z,99218.28
2022-11-15T01:21:52.587Z,99224.22
2022-11-15T01:22:04.512Z,99224.97
2022-11-15T01:22:16.745Z,99221.50
2022-11-15T01:22:28.682Z,99221.41
2022-11-15T01:22:40.581Z,99224.97
2022-11-15T01:22:52.455Z,99223.28
2022-11-15T01:23:04.356Z,99222.41
2022-11-15T01:23:16.271Z,99224.13
2022-11-15T01:23:28.251Z,99227.56
2022-11-15T01:23:40.390Z,99225.78
2022-11-15T01:23:56.645Z,99224.00
2022-11-15T01:24:12.606Z,99222.22
2022-11-15T01:24:24.509Z,99228.19
2022-11-15T01:24:36.533Z,99226.41
2022-11-15T01:24:50.995Z,99225.50
2022-11-15T01:25:02.985Z,99226.31
2022-11-15T01:25:15.237Z,99223.69
2022-11-15T01:25:27.142Z,99227.19
2022-11-15T01:25:39.018Z,99226.31
2022-11-15T01:25:50.969Z,99234.16
2022-11-15T01:26:05.533Z,99222.09
2022-11-15T01:26:17.452Z,99228.09
2022-11-15T01:26:29.445Z,99217.84
2022-11-15T01:26:41.915Z,99224.72
2022-11-15T01:26:53.875Z,99229.03
2022-11-15T01:27:05.839Z,99225.50
2022-11-15T01:27:17.825Z,99231.50
2022-11-15T01:27:29.777Z,99223.69
2022-11-15T01:27:41.693Z,99221.06
2022-11-15T01:27:53.594Z,99226.31
2022-11-15T01:28:05.503Z,99225.44
2022-11-15T01:28:17.493Z,99228.03
2022-11-15T01:28:34.593Z,99228.09
2022-11-15T01:28:46.833Z,99222.84
2022-11-15T01:28:58.698Z,99229.63
2022-11-15T01:29:10.592Z,99221.88
2022-11-15T01:29:22.510Z,99228.03
2022-11-15T01:29:34.397Z,99228.09
2022-11-15T01:29:46.315Z,99229.81
2022-11-15T01:29:58.208Z,99229.81
2022-11-15T01:30:10.335Z,99228.03
2022-11-15T01:30:22.252Z,99226.31
2022-11-15T01:30:34.314Z,99220.34
2022-11-15T01:30:46.299Z,99229.81
2022-11-15T01:31:02.801Z,99225.31
2022-11-15T01:31:17.890Z,99226.25
2022-11-15T01:31:29.800Z,99224.44
2022-11-15T01:31:41.682Z,99226.25
2022-11-15T01:31:54.665Z,99225.41
2022-11-15T01:32:06.631Z,99221.06
2022-11-15T01:32:18.840Z,99226.13
2022-11-15T01:32:30.707Z,99223.66
2022-11-15T01:32:42.666Z,99223.66
2022-11-15T01:32:54.545Z,99222.84
2022-11-15T01:33:06.471Z,99221.06
2022-11-15T01:33:18.363Z,99226.25
2022-11-15T01:33:31.315Z,99224.50
2022-11-15T01:33:43.754Z,99220.97
2022-11-15T01:33:55.619Z,99223.69
2022-11-15T01:34:07.610Z,99221.13
2022-11-15T01:34:19.469Z,99222.03
2022-11-15T01:34:31.386Z,99222.84
2022-11-15T01:34:43.271Z,99218.50
2022-11-15T01:34:55.146Z,99219.34
2022-11-15T01:35:07.349Z,99221.06
2022-11-15T01:35:19.460Z,99222.75
2022-11-15T01:35:31.444Z,99216.69
2022-11-15T01:35:43.410Z,99220.97
2022-11-15T01:35:55.647Z,99215.78
2022-11-15T01:36:10.987Z,99224.34
2022-11-15T01:36:23.339Z,99222.56
2022-11-15T01:36:35.273Z,99219.13
2022-11-15T01:36:47.184Z,99220.88
2022-11-15T01:36:59.751Z,99220.97
2022-11-15T01:37:11.635Z,99219.34
2022-11-15T01:37:23.598Z,99214.28
2022-11-15T01:37:35.733Z,99217.75
2022-11-15T01:37:47.691Z,99212.66
2022-11-15T01:37:59.660Z,99211.88
2022-11-15T01:38:11.573Z,99218.78
2022-11-15T01:38:23.989Z,99214.47
2022-11-15T01:38:35.917Z,99217.91
2022-11-15T01:38:48.160Z,99223.09
2022-11-15T01:39:00.438Z,99214.53
2022-11-15T01:39:12.403Z,99216.25
2022-11-15T01:39:24.326Z,99219.59
2022-11-15T01:39:36.225Z,99212.66
2022-11-15T01:39:48.088Z,99209.97
2022-11-15T01:40:00.071Z,99209.94
2022-11-15T01:40:12.066Z,99212.50
2022-11-15T01:40:24.074Z,99214.16
2022-11-15T01:40:36.006Z,99215.91
2022-11-15T01:40:48.379Z,99209.00
2022-11-15T01:41:00.273Z,99215.09
2022-11-15T01:41:20.739Z,99215.09
2022-11-15T01:41:34.323Z,99211.69
2022-11-15T01:41:46.185Z,99215.97
2022-11-15T01:41:58.134Z,99208.97
2022-11-15T01:42:14.234Z,99214.09
2022-11-15T01:42:26.296Z,99215.78
2022-11-15T01:42:38.198Z,99218.31
2022-11-15T01:42:50.152Z,99214.91
2022-11-15T01:43:25.020Z,99215.69
2022-11-15T01:43:37.704Z,99213.16
2022-11-15T01:43:54.919Z,99212.50
2022-11-15T01:44:31.566Z,99210.09
2022-11-15T01:44:55.603Z,99209.88
2022-11-15T01:45:15.046Z,99210.88
2022-11-15T01:45:27.389Z,99209.09
2022-11-15T01:45:39.888Z,99210.88
2022-11-15T01:46:05.493Z,99212.56
2022-11-15T01:46:34.374Z,99210.94
2022-11-15T01:46:49.096Z,99208.38
2022-11-15T01:47:04.184Z,99211.06
2022-11-15T01:47:22.366Z,99211.06
2022-11-15T01:47:44.353Z,99211.06
2022-11-15T01:47:56.597Z,99205.84
2022-11-15T01:48:11.595Z,99204.97
2022-11-15T01:48:30.325Z,99202.41
2022-11-15T01:48:42.716Z,99208.47
2022-11-15T01:48:57.008Z,99203.31
2022-11-15T01:49:17.259Z,99202.41
2022-11-15T01:49:33.357Z,99203.25
2022-11-15T01:50:01.505Z,99203.13
2022-11-15T01:50:18.359Z,99200.59
2022-11-15T01:50:32.889Z,99200.53
2022-11-15T01:50:45.768Z,99198.75
2022-11-15T01:50:58.445Z,99199.50
2022-11-15T01:51:14.806Z,99191.75
2022-11-15T01:51:30.226Z,99201.22
2022-11-15T01:51:42.110Z,99194.34
2022-11-15T01:51:55.843Z,99199.50
2022-11-15T01:52:15.859Z,99201.13
2022-11-15T01:52:31.339Z,99198.56
2022-11-15T01:52:43.767Z,99202.03
2022-11-15T01:52:56.469Z,99201.16
2022-11-15T01:53:08.603Z,99203.75
2022-11-15T01:53:23.989Z,99202.78
2022-11-15T01:53:41.168Z,99202.94
2022-11-15T01:53:58.123Z,99204.63
2022-11-15T01:54:15.080Z,99194.38
2022-11-15T01:54:27.140Z,99195.34
2022-11-15T01:54:40.507Z,99197.91
2022-11-15T01:55:16.935Z,99185.00
2022-11-15T01:55:29.110Z,99186.78
2022-11-15T01:55:41.019Z,99183.28
2022-11-15T01:55:54.035Z,99191.03
2022-11-15T01:56:09.738Z,99186.59
2022-11-15T01:56:26.033Z,99186.50
2022-11-15T01:56:45.691Z,99188.09
2022-11-15T01:57:09.434Z,99186.25
2022-11-15T01:57:21.903Z,99196.59
2022-11-15T01:57:34.775Z,99193.94
2022-11-15T01:57:50.131Z,99190.44
2022-11-15T01:58:05.252Z,99199.00
2022-11-15T01:58:17.300Z,99197.31
2022-11-15T01:58:29.329Z,99189.56
2022-11-15T01:58:42.843Z,99190.38
2022-11-15T01:58:57.644Z,99191.22
2022-11-15T01:59:10.652Z,99195.66
2022-11-15T01:59:23.771Z,99190.47
2022-11-15T01:59:37.631Z,99193.81
2022-11-15T01:59:49.961Z,99188.59
2022-11-15T02:00:02.170Z,99192.00
2022-11-15T02:00:15.239Z,99191.97
2022-11-15T02:00:27.334Z,99190.25
2022-11-15T02:00:39.595Z,99185.09
2022-11-15T02:00:52.856Z,99192.06
2022-11-15T02:01:04.996Z,99186.06
2022-11-15T02:01:17.082Z,99189.63
2022-11-15T02:01:29.926Z,99191.34
2022-11-15T02:01:43.886Z,99184.53
2022-11-15T02:01:56.252Z,99184.53
2022-11-15T02:02:08.283Z,99186.25
2022-11-15T02:02:20.372Z,99186.25
2022-11-15T02:02:34.336Z,99183.66
2022-11-15T02:02:46.372Z,99182.75
2022-11-15T02:02:58.474Z,99190.47
2022-11-15T02:03:10.713Z,99187.03
2022-11-15T02:03:28.146Z,99180.91
2022-11-15T02:03:51.545Z,99187.78
2022-11-15T02:04:11.071Z,99180.00
2022-11-15T02:04:28.827Z,99179.94
2022-11-15T02:04:47.529Z,99182.47
2022-11-15T02:04:59.468Z,99179.00
2022-11-15T02:05:11.633Z,99178.13
2022-11-15T02:05:23.524Z,99183.25
2022-11-15T02:05:37.203Z,99180.59
2022-11-15T02:05:50.826Z,99184.84
2022-11-15T02:06:05.252Z,99178.72
2022-11-15T02:06:17.291Z,99187.28
2022-11-15T02:06:29.173Z,99184.59
2022-11-15T02:06:42.210Z,99179.34
2022-11-15T02:06:54.295Z,99187.09
2022-11-15T02:07:09.414Z,99178.47
2022-11-15T02:07:22.924Z,99181.91
2022-11-15T02:07:36.833Z,99181.06
2022-11-15T02:07:49.523Z,99184.47
2022-11-15T02:08:01.947Z,99183.59
2022-11-15T02:08:21.117Z,99180.16
2022-11-15T02:08:33.114Z,99187.09
2022-11-15T02:08:45.677Z,99187.09
2022-11-15T02:08:58.313Z,99187.09
2022-11-15T02:09:11.840Z,99185.31
2022-11-15T02:09:24.135Z,99188.69
2022-11-15T02:09:37.628Z,99180.06
2022-11-15T02:09:51.690Z,99191.19
2022-11-15T02:10:11.508Z,99186.84
2022-11-15T02:10:25.240Z,99188.63
2022-11-15T02:10:37.116Z,99189.50
2022-11-15T02:10:49.079Z,99193.81
2022-11-15T02:11:00.964Z,99188.72
2022-11-15T02:11:12.849Z,99185.25
2022-11-15T02:11:24.903Z,99187.00
2022-11-15T02:11:37.238Z,99191.31
2022-11-15T02:11:51.503Z,99184.47
2022-11-15T02:12:03.818Z,99188.00
2022-11-15T02:12:19.610Z,99194.00
2022-11-15T02:12:32.582Z,99186.41
2022-11-15T02:12:45.046Z,99189.91
2022-11-15T02:12:57.860Z,99186.44
2022-11-15T02:13:10.269Z,99185.69
2022-11-15T02:13:22.311Z,99187.50
2022-11-15T02:13:34.473Z,99188.50
2022-11-15T02:13:46.918Z,99184.28
2022-11-15T02:14:00.436Z,99191.97
2022-11-15T02:14:15.561Z,99193.59
2022-11-15T02:14:30.680Z,99192.75
2022-11-15T02:14:45.427Z,99192.69
2022-11-15T02:14:57.632Z,99195.34
2022-11-15T02:15:11.798Z,99194.34
2022-11-15T02:15:28.804Z,99195.19
2022-11-15T02:15:52.790Z,99184.84
2022-11-15T02:16:28.804Z,99186.59
2022-11-15T02:16:54.183Z,99184.91
2022-11-15T02:17:11.914Z,99183.25
2022-11-15T02:17:36.984Z,99191.03
2022-11-15T02:18:20.963Z,99184.13
2022-11-15T02:18:37.642Z,99187.50
2022-11-15T02:18:57.299Z,99188.31
2022-11-15T02:19:20.952Z,99183.88
2022-11-15T02:19:32.805Z,99189.03
2022-11-15T02:20:20.194Z,99187.28
2022-11-15T02:20:58.264Z,99188.03
2022-11-15T02:21:19.065Z,99181.09
2022-11-15T02:21:36.436Z,99186.28
2022-11-15T02:21:57.709Z,99182.22
2022-11-15T02:22:37.828Z,99180.53
2022-11-15T02:23:15.477Z,99183.88
2022-11-15T02:24:15.210Z,99180.50
2022-11-15T02:24:57.216Z,99177.31
2022-11-15T02:25:39.041Z,99180.88
2022-11-15T02:26:08.497Z,99178.25
2022-11-15T02:26:59.576Z,99180.69
2022-11-15T02:27:46.899Z,99177.09
2022-11-15T02:28:29.578Z,99183.88
2022-11-15T02:28:47.300Z,99184.06
2022-11-15T02:29:09.813Z,99180.53
2022-11-15T02:29:52.195Z,99172.78
2022-11-15T02:30:22.552Z,99175.31
2022-11-15T02:30:38.885Z,99177.03
2022-11-15T02:31:05.577Z,99171.88
2022-11-15T02:31:56.089Z,99176.22
2022-11-15T02:32:16.010Z,99177.22
2022-11-15T02:32:27.852Z,99173.03
2022-11-15T02:32:48.284Z,99176.41
2022-11-15T02:33:15.438Z,99173.84
2022-11-15T02:33:36.897Z,99170.34
2022-11-15T02:34:23.995Z,99173.72
2022-11-15T02:35:13.714Z,99170.13
2022-11-15T02:35:25.546Z,99161.75
2022-11-15T02:36:01.007Z,99171.13
2022-11-15T02:36:18.801Z,99168.53
2022-11-15T02:36:36.581Z,99172.91
2022-11-15T02:37:04.821Z,99176.28
2022-11-15T02:37:47.722Z,99171.16
2022-11-15T02:38:18.165Z,99168.50
2022-11-15T02:39:18.315Z,99170.13
2022-11-15T02:39:44.602Z,99166.91
2022-11-15T02:40:20.635Z,99163.50
2022-11-15T02:40:41.810Z,99164.47
2022-11-15T02:41:08.844Z,99163.75
2022-11-15T02:41:30.640Z,99165.59
2022-11-15T02:41:58.295Z,99164.91
2022-11-15T02:42:34.102Z,99169.19
2022-11-15T02:43:24.167Z,99167.31
2022-11-15T02:43:58.914Z,99165.34
2022-11-15T02:44:21.897Z,99166.06
2022-11-15T02:44:39.904Z,99168.53
2022-11-15T02:44:54.141Z,99164.16
2022-11-15T02:45:10.116Z,99164.13
2022-11-15T02:45:31.605Z,99168.47
2022-11-15T02:45:54.079Z,99166.75
2022-11-15T02:46:15.590Z,99162.53
2022-11-15T02:47:17.949Z,99168.66
2022-11-15T02:47:32.596Z,99170.13
2022-11-15T02:47:50.119Z,99170.94
2022-11-15T02:48:04.900Z,99164.81
2022-11-15T02:48:18.595Z,99168.19
2022-11-15T02:48:32.522Z,99161.34
2022-11-15T02:48:45.603Z,99163.03
2022-11-15T02:48:57.827Z,99161.19
2022-11-15T02:49:12.405Z,99159.50
2022-11-15T02:49:28.971Z,99162.88
2022-11-15T02:49:53.466Z,99159.44
2022-11-15T02:50:09.871Z,99161.13
2022-11-15T02:50:26.674Z,99164.53
2022-11-15T02:50:39.004Z,99154.16
2022-11-15T02:50:52.195Z,99161.91
2022-11-15T02:51:05.361Z,99160.13
2022-11-15T02:51:17.854Z,99164.41
2022-11-15T02:51:29.958Z,99152.56